Russell, Canada
Current Conditions -  °F | °C
As of 10:00 AM on Monday 22 Dec 2014 (Local Time) from CYDN Reporting Station
Light Snow Light Snow  
Wind Chill: 21°   Ceiling: 500
Heat Index: 28°   Visibility: 0.75mi
Dew Point: 28°   Wind: 7mph
Humidity: 100%   Direction: 60°ENE
Pressure: 29.66"   Gusts: NA
Location:  50.78°N, 101.28°W
Report Text: CYDN 221600Z AUTO 06006KT 3/4SM -SN OVC005 M02/M02 A2966 RMK SLP059
Loading
Personal Weather Stations






























Interactive Weather Map New forecast layout! Learn more

10-Day Weather Forecast

Advertisements
Track Severe Weather on mobile